Flight Track Log - Related Links

Times and Time Zones

All times are in EDT time to prevent confusion due to time zone crossing. See the TRS719 flight status page for this flight to view local times or setup timezone preferences in your user account.

Time Position Orientation Groundspeed Altitude Reporting Facility
EDT Latitude Longitude Course Direction KTS MPH feet Rate Location/Type
Mon 07:39:52 PM 30.5761 -107.5372 North 466 536 39,000  Level Albuquerque Center
Mon 07:40:54 PM 30.7050 -107.5253 North 465 535 39,000  Level Albuquerque Center
Mon 07:41:55 PM 30.8336 -107.5150 North 464 534 39,000  Level Albuquerque Center
Mon 07:42:57 PM 30.9619 -107.5061 North 462 532 39,000  Level Albuquerque Center
Mon 07:43:58 PM 31.0894 -107.4942 North 459 528 39,000  Level Albuquerque Center
Mon 07:45:00 PM 31.2153 -107.4822 North 455 524 39,000  Level Albuquerque Center
Mon 07:46:01 PM 31.3667 -107.4672 North 454 522 39,000  Level Albuquerque Center
Mon 07:47:02 PM 31.4931 -107.4550 North 455 524 39,000  Level Albuquerque Center
Mon 07:48:04 PM 31.6172 -107.4575 359° North 449 517 39,000  Level Albuquerque Center
Mon 07:49:05 PM 31.7381 -107.4819 350° North 440 506 39,000  Level Albuquerque Center
Mon 07:50:07 PM 31.8481 -107.5031 351° North 439 505 39,000  Level Albuquerque Center
Mon 07:51:08 PM 31.9850 -107.4981 North 450 518 39,000  Level Albuquerque Center
Mon 07:52:10 PM 32.1119 -107.4781 North 458 527 39,000  Level Albuquerque Center
Mon 07:53:11 PM 32.2467 -107.4556 North 456 525 39,000  Level Albuquerque Center
Mon 07:54:13 PM 32.3689 -107.4367 North 450 518 39,000  Level Albuquerque Center
Mon 07:55:14 PM 32.4928 -107.4156 North 452 520 39,000  Level Albuquerque Center
Mon 07:56:15 PM 32.6192 -107.3939 North 457 526 39,000  Level Albuquerque Center
Mon 07:57:17 PM 32.7728 -107.3675 North 460 529 39,000  Level Albuquerque Center
Mon 07:58:19 PM 32.8994 -107.3461 North 458 527 39,000  Level Albuquerque Center
Mon 07:59:20 PM 33.0261 -107.3250 North 457 526 39,000  Level Albuquerque Center
Mon 08:00:22 PM 33.1536 -107.3025 North 460 529 39,000  Level Albuquerque Center
Mon 08:01:23 PM 33.2792 -107.2814 North 457 526 39,000  Level Albuquerque Center
Mon 08:02:25 PM 33.4042 -107.2497 12° North 458 527 39,000  Level Albuquerque Center
Mon 08:03:26 PM 33.5278 -107.2153 13° North 457 526 39,000  Level Albuquerque Center
Mon 08:04:28 PM 33.6522 -107.1844 12° North 456 525 39,000  Level Albuquerque Center
Mon 08:05:29 PM 33.7750 -107.1547 11° North 452 520 39,000  Level Albuquerque Center
Mon 08:06:31 PM 33.9225 -107.1161 12° North 452 520 39,000  Level Albuquerque Center
Mon 08:07:33 PM 34.0472 -107.0814 13° North 457 526 39,000  Level Albuquerque Center
Mon 08:08:34 PM 34.1717 -107.0489 12° North 457 526 39,000  Level Albuquerque Center
Mon 08:09:36 PM 34.2953 -107.0183 12° North 455 524 39,000  Level Albuquerque Center
Mon 08:10:38 PM 34.4319 -106.9811 13° North 454 522 39,000  Level Albuquerque Center
Mon 08:11:39 PM 34.5561 -106.9483 12° North 454 522 39,000  Level Albuquerque Center
Mon 08:12:41 PM 34.6778 -106.9153 13° North 451 519 39,000  Level Albuquerque Center
Mon 08:13:43 PM 34.8003 -106.8817 13° North 450 518 39,000  Level Albuquerque Center
Mon 08:14:45 PM 34.9436 -106.8444 12° North 455 524 39,000  Level Albuquerque Center
Mon 08:15:46 PM 35.0614 -106.8158 11° North 453 521 39,000  Level Albuquerque Center
Mon 08:16:48 PM 35.1800 -106.8033 North 448 516 39,000  Level Albuquerque Center
Mon 08:17:50 PM 35.3169 -106.7925 North 443 510 39,000  Level Albuquerque Center
Mon 08:18:52 PM 35.4300 -106.7817 North 441 507 39,000  Level Albuquerque Center
Mon 08:19:54 PM 35.5506 -106.7703 North 437 503 39,000  Level Albuquerque Center
Mon 08:20:55 PM 35.6828 -106.7592 North 432 497 39,000  Level Albuquerque Center
Mon 08:21:57 PM 35.8175 -106.7461 North 434 499 39,000  Level Albuquerque Center
Mon 08:22:59 PM 35.9356 -106.7367 North 434 499 39,000  Level Albuquerque Center
Mon 08:24:01 PM 36.0567 -106.7244 North 435 501 39,000  Level Albuquerque Center
Mon 08:25:03 PM 36.1836 -106.7142 North 434 499 39,000 -49 Level Albuquerque Center
Mon 08:26:04 PM 36.2981 -106.7028 North 432 497 38,900 -488 Descending Albuquerque Center
Mon 08:27:06 PM 36.4306 -106.6906 North 429 494 38,000 -667 Descending Albuquerque Center
Mon 08:27:25 PM 36.4681 -106.6861 North 425 489 38,000 -148 Level Denver Center
Mon 08:28:27 PM 36.5822 -106.6750 North 429 494 37,800 -484 Descending Denver Center
Mon 08:29:29 PM 36.7167 -106.6628 North 432 497 37,000 -390 Descending Denver Center
Mon 08:30:30 PM 36.8306 -106.6494 North 431 496 37,000  Level Denver Center
Mon 08:31:32 PM 36.9636 -106.6078 14° North 441 507 37,000  Level Denver Center
Mon 08:32:46 PM 37.0792 -106.5747 13° North 440 506 37,000  Level Denver Center
Mon 08:33:48 PM 37.2319 -106.5283 14° North 441 507 37,000  Level Denver Center
Mon 08:34:49 PM 37.3444 -106.4925 14° North 436 502 37,000  Level Denver Center
Mon 08:35:51 PM 37.4806 -106.4519 13° North 443 510 37,000  Level Denver Center
Mon 08:36:52 PM 37.5944 -106.4172 14° North 442 509 37,000  Level Denver Center
Mon 08:37:54 PM 37.7297 -106.3753 14° North 446 513 37,000  Level Denver Center
Mon 08:38:56 PM 37.8422 -106.3408 14° North 443 510 37,000  Level Denver Center
Mon 08:39:57 PM 37.9744 -106.3003 14° North 438 504 37,000  Level Denver Center
Mon 08:40:59 PM 38.0897 -106.2625 14° North 434 499 37,000 -439 Level Denver Center
Mon 08:42:00 PM 38.2089 -106.1933 25° Northeast 463 533 36,100 -976 Descending Denver Center
Mon 08:43:02 PM 38.3356 -106.1211 24° Northeast 474 545 35,000 -968 Descending Denver Center
Mon 08:44:04 PM 38.4519 -106.0558 24° Northeast 476 548 34,100 -1,073 Descending Denver Center
Mon 08:45:05 PM 38.5847 -105.9806 24° Northeast 469 540 32,800 -1,610 Descending Denver Center
Mon 08:46:07 PM 38.6906 -105.9206 24° Northeast 461 531 30,800 -2,049 Descending Denver Center
Mon 08:47:08 PM 38.8031 -105.8572 24° Northeast 442 509 28,600 -2,293 Descending Denver Center
Mon 08:48:10 PM 38.9125 -105.7439 39° Northeast 461 531 26,100 -2,226 Descending Denver Center
Mon 08:49:12 PM 38.9972 -105.6369 44° Northeast 449 517 24,000 -2,146 Descending Denver Center
Mon 08:50:13 PM 39.0947 -105.5119 45° Northeast 442 509 21,700 -2,195 Descending Denver Center
Mon 08:51:15 PM 39.1783 -105.4039 45° Northeast 442 509 19,500 -1,645 Descending Denver Center
Mon 08:52:17 PM 39.2575 -105.3011 45° Northeast 404 465 18,300 -1,463 Descending Denver Center
Mon 08:53:18 PM 39.2856 -105.1558 76° East 380 437 16,500 -1,463 Descending Denver Center
Mon 08:54:20 PM 39.3256 -105.0336 67° East 367 422 15,300 -1,210 Descending Denver Center
Mon 08:55:22 PM 39.3792 -104.9142 60° Northeast 356 410 14,000 -1,122 Descending Denver Center
Mon 08:56:23 PM 39.4250 -104.8092 61° Northeast 341 392 13,000 -774 Descending Denver Center
Mon 08:57:26 PM 39.4661 -104.7172 60° Northeast 299 344 12,400 -774 Descending Denver Center
Mon 08:58:27 PM 39.5267 -104.6636 34° Northeast 256 295 11,400 -984 Descending Denver Center
Mon 08:59:28 PM 39.5844 -104.6647 359° North 210 242 10,400 -976 Descending Denver Center
Mon 09:00:30 PM 39.6339 -104.6631 North 180 207 9,400 -1,065 Descending Denver Center
Mon 09:01:32 PM 39.6914 -104.6622 North 187 215 8,200 -1,073 Descending Denver Center
Mon 09:02:33 PM 39.7411 -104.6619 360° North 180 207 7,200 -829 Descending Denver Center
Mon 09:03:35 PM 39.7783 -104.6611 North 136 157 6,500 -732 Descending Denver Center
Mon 09:04:36 PM 39.8178 -104.6611 360° North 131 151 5,700 -787 Descending Denver Center
Mon 09:06:00 PM 39.8500 -104.6667 North  Level FlightAware Approximate
Mon 09:13:00 PM 39.8617 -104.6732 North  Level Estimated

Login

Don't have an account? Register now (free) for customized features, flight alerts, and more!